sensor_id;sensor_type;location;lat;lon;timestamp;P1;durP1;ratioP1;P2;durP2;ratioP2
15114;SDS011;7658;51.456;7.622;2024-03-07T00:02:09;96.63;;;31.47;;
15114;SDS011;7658;51.456;7.622;2024-03-07T00:04:35;83.87;;;28.97;;
15114;SDS011;7658;51.456;7.622;2024-03-07T00:07:01;84.23;;;30.90;;
15114;SDS011;7658;51.456;7.622;2024-03-07T00:09:29;98.70;;;31.73;;
15114;SDS011;7658;51.456;7.622;2024-03-07T00:11:58;73.13;;;31.40;;
15114;SDS011;7658;51.456;7.622;2024-03-07T00:14:24;72.97;;;29.10;;
15114;SDS011;7658;51.456;7.622;2024-03-07T00:16:53;54.87;;;28.20;;
15114;SDS011;7658;51.456;7.622;2024-03-07T00:19:20;73.43;;;30.63;;
15114;SDS011;7658;51.456;7.622;2024-03-07T00:21:46;68.43;;;31.13;;
15114;SDS011;7658;51.456;7.622;2024-03-07T00:24:12;52.73;;;28.93;;
15114;SDS011;7658;51.456;7.622;2024-03-07T00:26:39;57.80;;;30.43;;
15114;SDS011;7658;51.456;7.622;2024-03-07T00:29:06;80.87;;;30.53;;
15114;SDS011;7658;51.456;7.622;2024-03-07T00:31:32;68.10;;;28.70;;
15114;SDS011;7658;51.456;7.622;2024-03-07T00:33:58;81.23;;;28.60;;
15114;SDS011;7658;51.456;7.622;2024-03-07T00:36:24;73.87;;;27.90;;
15114;SDS011;7658;51.456;7.622;2024-03-07T00:38:51;76.00;;;29.53;;
15114;SDS011;7658;51.456;7.622;2024-03-07T00:41:17;74.23;;;27.23;;
15114;SDS011;7658;51.456;7.622;2024-03-07T00:43:44;76.70;;;27.07;;
15114;SDS011;7658;51.456;7.622;2024-03-07T00:46:10;83.17;;;25.47;;
15114;SDS011;7658;51.456;7.622;2024-03-07T00:48:36;60.17;;;25.60;;
15114;SDS011;7658;51.456;7.622;2024-03-07T00:51:03;59.00;;;26.53;;
15114;SDS011;7658;51.456;7.622;2024-03-07T00:53:29;85.20;;;28.00;;
15114;SDS011;7658;51.456;7.622;2024-03-07T00:55:55;64.67;;;27.83;;
15114;SDS011;7658;51.456;7.622;2024-03-07T00:58:21;78.97;;;27.93;;
15114;SDS011;7658;51.456;7.622;2024-03-07T01:00:47;52.53;;;24.17;;
15114;SDS011;7658;51.456;7.622;2024-03-07T01:03:13;87.77;;;27.93;;
15114;SDS011;7658;51.456;7.622;2024-03-07T01:05:39;55.50;;;25.10;;
15114;SDS011;7658;51.456;7.622;2024-03-07T01:08:05;55.77;;;24.87;;
15114;SDS011;7658;51.456;7.622;2024-03-07T01:10:31;53.43;;;24.60;;
15114;SDS011;7658;51.456;7.622;2024-03-07T01:12:57;58.47;;;25.10;;
15114;SDS011;7658;51.456;7.622;2024-03-07T01:15:26;51.77;;;25.43;;
15114;SDS011;7658;51.456;7.622;2024-03-07T01:17:53;44.67;;;23.70;;
15114;SDS011;7658;51.456;7.622;2024-03-07T01:20:18;38.53;;;24.33;;
15114;SDS011;7658;51.456;7.622;2024-03-07T01:22:44;63.13;;;25.10;;
15114;SDS011;7658;51.456;7.622;2024-03-07T01:25:10;54.23;;;22.93;;
15114;SDS011;7658;51.456;7.622;2024-03-07T01:27:39;61.23;;;25.50;;
15114;SDS011;7658;51.456;7.622;2024-03-07T01:30:05;64.93;;;25.43;;
15114;SDS011;7658;51.456;7.622;2024-03-07T01:32:33;99.23;;;26.77;;
15114;SDS011;7658;51.456;7.622;2024-03-07T01:34:59;64.57;;;25.77;;
15114;SDS011;7658;51.456;7.622;2024-03-07T01:37:25;91.90;;;27.60;;
15114;SDS011;7658;51.456;7.622;2024-03-07T01:39:51;117.23;;;27.57;;
15114;SDS011;7658;51.456;7.622;2024-03-07T01:42:17;44.47;;;21.67;;
15114;SDS011;7658;51.456;7.622;2024-03-07T01:44:43;41.83;;;22.93;;
15114;SDS011;7658;51.456;7.622;2024-03-07T01:47:09;45.97;;;24.73;;
15114;SDS011;7658;51.456;7.622;2024-03-07T01:49:36;54.07;;;24.33;;
15114;SDS011;7658;51.456;7.622;2024-03-07T01:52:04;82.50;;;24.83;;
15114;SDS011;7658;51.456;7.622;2024-03-07T01:54:30;84.50;;;25.53;;
15114;SDS011;7658;51.456;7.622;2024-03-07T01:56:57;76.90;;;24.60;;
15114;SDS011;7658;51.456;7.622;2024-03-07T01:59:23;61.30;;;22.13;;
15114;SDS011;7658;51.456;7.622;2024-03-07T02:01:50;54.67;;;23.03;;
15114;SDS011;7658;51.456;7.622;2024-03-07T02:04:16;58.40;;;23.63;;
15114;SDS011;7658;51.456;7.622;2024-03-07T02:06:42;48.63;;;22.37;;
15114;SDS011;7658;51.456;7.622;2024-03-07T02:09:08;38.90;;;21.50;;
15114;SDS011;7658;51.456;7.622;2024-03-07T02:11:34;34.23;;;21.13;;
15114;SDS011;7658;51.456;7.622;2024-03-07T02:14:00;37.37;;;23.37;;
15114;SDS011;7658;51.456;7.622;2024-03-07T02:16:26;33.13;;;21.77;;
15114;SDS011;7658;51.456;7.622;2024-03-07T02:18:52;33.47;;;22.70;;
15114;SDS011;7658;51.456;7.622;2024-03-07T02:21:20;31.27;;;21.23;;
15114;SDS011;7658;51.456;7.622;2024-03-07T02:23:46;35.37;;;23.23;;
15114;SDS011;7658;51.456;7.622;2024-03-07T02:26:12;31.57;;;21.20;;
15114;SDS011;7658;51.456;7.622;2024-03-07T02:28:38;32.03;;;21.83;;
15114;SDS011;7658;51.456;7.622;2024-03-07T02:31:04;32.80;;;20.40;;
15114;SDS011;7658;51.456;7.622;2024-03-07T02:33:30;43.60;;;21.27;;
15114;SDS011;7658;51.456;7.622;2024-03-07T02:35:57;33.43;;;20.57;;
15114;SDS011;7658;51.456;7.622;2024-03-07T02:38:23;40.73;;;21.60;;
15114;SDS011;7658;51.456;7.622;2024-03-07T02:40:49;42.00;;;20.73;;
15114;SDS011;7658;51.456;7.622;2024-03-07T02:43:15;42.07;;;21.50;;
15114;SDS011;7658;51.456;7.622;2024-03-07T02:45:41;47.63;;;22.07;;
15114;SDS011;7658;51.456;7.622;2024-03-07T02:48:07;37.97;;;21.50;;
15114;SDS011;7658;51.456;7.622;2024-03-07T02:50:35;53.47;;;22.50;;
15114;SDS011;7658;51.456;7.622;2024-03-07T02:53:03;47.40;;;22.43;;
15114;SDS011;7658;51.456;7.622;2024-03-07T02:55:29;64.67;;;22.13;;
15114;SDS011;7658;51.456;7.622;2024-03-07T02:57:56;62.43;;;22.03;;
15114;SDS011;7658;51.456;7.622;2024-03-07T03:00:23;51.80;;;21.47;;
15114;SDS011;7658;51.456;7.622;2024-03-07T03:02:55;102.43;;;25.90;;
15114;SDS011;7658;51.456;7.622;2024-03-07T03:05:21;57.07;;;21.60;;
15114;SDS011;7658;51.456;7.622;2024-03-07T03:07:48;68.10;;;22.07;;
15114;SDS011;7658;51.456;7.622;2024-03-07T03:10:19;39.93;;;20.27;;
15114;SDS011;7658;51.456;7.622;2024-03-07T03:12:52;45.33;;;21.47;;
15114;SDS011;7658;51.456;7.622;2024-03-07T03:15:19;57.93;;;20.93;;
15114;SDS011;7658;51.456;7.622;2024-03-07T03:17:46;64.70;;;22.47;;
15114;SDS011;7658;51.456;7.622;2024-03-07T03:20:12;53.33;;;21.00;;
15114;SDS011;7658;51.456;7.622;2024-03-07T03:22:54;72.93;;;22.50;;
15114;SDS011;7658;51.456;7.622;2024-03-07T03:25:20;41.23;;;21.43;;
15114;SDS011;7658;51.456;7.622;2024-03-07T03:27:47;64.27;;;22.70;;
15114;SDS011;7658;51.456;7.622;2024-03-07T03:30:13;84.27;;;25.30;;
15114;SDS011;7658;51.456;7.622;2024-03-07T03:32:40;56.77;;;23.23;;
15114;SDS011;7658;51.456;7.622;2024-03-07T03:35:06;42.17;;;21.57;;
15114;SDS011;7658;51.456;7.622;2024-03-07T03:37:38;38.63;;;23.17;;
15114;SDS011;7658;51.456;7.622;2024-03-07T03:40:06;56.80;;;24.03;;
15114;SDS011;7658;51.456;7.622;2024-03-07T03:42:34;70.23;;;23.97;;
15114;SDS011;7658;51.456;7.622;2024-03-07T03:45:01;40.63;;;21.67;;
15114;SDS011;7658;51.456;7.622;2024-03-07T03:47:32;63.77;;;23.50;;
15114;SDS011;7658;51.456;7.622;2024-03-07T03:49:59;76.63;;;24.63;;
15114;SDS011;7658;51.456;7.622;2024-03-07T03:52:24;64.97;;;22.33;;
15114;SDS011;7658;51.456;7.622;2024-03-07T03:54:51;39.57;;;22.67;;
15114;SDS011;7658;51.456;7.622;2024-03-07T03:57:17;65.13;;;24.40;;
15114;SDS011;7658;51.456;7.622;2024-03-07T03:59:43;54.73;;;24.03;;
15114;SDS011;7658;51.456;7.622;2024-03-07T04:02:12;47.07;;;21.77;;
15114;SDS011;7658;51.456;7.622;2024-03-07T04:04:40;44.27;;;23.03;;
15114;SDS011;7658;51.456;7.622;2024-03-07T04:07:06;47.73;;;22.63;;
15114;SDS011;7658;51.456;7.622;2024-03-07T04:09:32;52.50;;;22.67;;
15114;SDS011;7658;51.456;7.622;2024-03-07T04:11:58;44.33;;;20.73;;
15114;SDS011;7658;51.456;7.622;2024-03-07T04:14:24;39.97;;;21.73;;
15114;SDS011;7658;51.456;7.622;2024-03-07T04:16:51;39.03;;;19.17;;
15114;SDS011;7658;51.456;7.622;2024-03-07T04:19:21;38.03;;;19.27;;
15114;SDS011;7658;51.456;7.622;2024-03-07T04:21:47;53.20;;;20.87;;
15114;SDS011;7658;51.456;7.622;2024-03-07T04:24:13;43.50;;;19.97;;
15114;SDS011;7658;51.456;7.622;2024-03-07T04:26:39;61.30;;;22.30;;
15114;SDS011;7658;51.456;7.622;2024-03-07T04:29:07;58.13;;;20.93;;
15114;SDS011;7658;51.456;7.622;2024-03-07T04:31:36;41.33;;;21.10;;
15114;SDS011;7658;51.456;7.622;2024-03-07T04:34:02;40.33;;;20.30;;
15114;SDS011;7658;51.456;7.622;2024-03-07T04:36:28;36.97;;;20.20;;
15114;SDS011;7658;51.456;7.622;2024-03-07T04:38:54;39.30;;;19.83;;
15114;SDS011;7658;51.456;7.622;2024-03-07T04:41:20;59.47;;;20.30;;
15114;SDS011;7658;51.456;7.622;2024-03-07T04:43:46;45.33;;;19.20;;
15114;SDS011;7658;51.456;7.622;2024-03-07T04:46:11;79.37;;;22.03;;
15114;SDS011;7658;51.456;7.622;2024-03-07T04:48:37;56.30;;;20.80;;
15114;SDS011;7658;51.456;7.622;2024-03-07T04:51:03;39.10;;;19.23;;
15114;SDS011;7658;51.456;7.622;2024-03-07T04:53:29;62.23;;;21.03;;
15114;SDS011;7658;51.456;7.622;2024-03-07T04:55:55;51.37;;;18.93;;
15114;SDS011;7658;51.456;7.622;2024-03-07T04:58:21;41.07;;;20.20;;
15114;SDS011;7658;51.456;7.622;2024-03-07T05:00:47;59.77;;;21.27;;
15114;SDS011;7658;51.456;7.622;2024-03-07T05:03:12;40.40;;;18.40;;
15114;SDS011;7658;51.456;7.622;2024-03-07T05:05:38;37.87;;;20.80;;
15114;SDS011;7658;51.456;7.622;2024-03-07T05:08:06;63.43;;;19.43;;
15114;SDS011;7658;51.456;7.622;2024-03-07T05:10:31;39.07;;;19.70;;
15114;SDS011;7658;51.456;7.622;2024-03-07T05:12:57;28.17;;;18.40;;
15114;SDS011;7658;51.456;7.622;2024-03-07T05:15:26;33.83;;;17.60;;
15114;SDS011;7658;51.456;7.622;2024-03-07T05:17:52;28.10;;;19.30;;
15114;SDS011;7658;51.456;7.622;2024-03-07T05:20:18;27.60;;;18.90;;
15114;SDS011;7658;51.456;7.622;2024-03-07T05:22:44;38.57;;;18.47;;
15114;SDS011;7658;51.456;7.622;2024-03-07T05:25:15;34.03;;;19.13;;
15114;SDS011;7658;51.456;7.622;2024-03-07T05:27:41;28.97;;;18.77;;
15114;SDS011;7658;51.456;7.622;2024-03-07T05:30:07;34.87;;;19.57;;
15114;SDS011;7658;51.456;7.622;2024-03-07T05:32:36;32.03;;;19.83;;
15114;SDS011;7658;51.456;7.622;2024-03-07T05:35:03;28.63;;;17.90;;
15114;SDS011;7658;51.456;7.622;2024-03-07T05:37:29;25.87;;;17.70;;
15114;SDS011;7658;51.456;7.622;2024-03-07T05:39:55;29.53;;;19.00;;
15114;SDS011;7658;51.456;7.622;2024-03-07T05:42:20;47.77;;;19.37;;
15114;SDS011;7658;51.456;7.622;2024-03-07T05:44:46;23.53;;;18.00;;
15114;SDS011;7658;51.456;7.622;2024-03-07T05:47:12;31.00;;;17.50;;
15114;SDS011;7658;51.456;7.622;2024-03-07T05:49:38;21.97;;;17.77;;
15114;SDS011;7658;51.456;7.622;2024-03-07T05:52:04;34.43;;;17.53;;
15114;SDS011;7658;51.456;7.622;2024-03-07T05:54:33;23.20;;;16.30;;
15114;SDS011;7658;51.456;7.622;2024-03-07T05:57:00;35.13;;;17.57;;
15114;SDS011;7658;51.456;7.622;2024-03-07T05:59:26;29.93;;;18.80;;
15114;SDS011;7658;51.456;7.622;2024-03-07T06:01:56;27.20;;;17.67;;
15114;SDS011;7658;51.456;7.622;2024-03-07T06:04:22;22.03;;;17.00;;
15114;SDS011;7658;51.456;7.622;2024-03-07T06:06:48;27.63;;;17.90;;
15114;SDS011;7658;51.456;7.622;2024-03-07T06:09:14;22.63;;;16.90;;
15114;SDS011;7658;51.456;7.622;2024-03-07T06:11:40;22.80;;;16.03;;
15114;SDS011;7658;51.456;7.622;2024-03-07T06:14:09;20.93;;;15.83;;
15114;SDS011;7658;51.456;7.622;2024-03-07T06:16:38;25.27;;;16.80;;
15114;SDS011;7658;51.456;7.622;2024-03-07T06:19:05;21.93;;;16.00;;
15114;SDS011;7658;51.456;7.622;2024-03-07T06:21:32;18.73;;;15.97;;
15114;SDS011;7658;51.456;7.622;2024-03-07T06:23:59;21.83;;;16.77;;
15114;SDS011;7658;51.456;7.622;2024-03-07T06:26:29;22.57;;;16.23;;
15114;SDS011;7658;51.456;7.622;2024-03-07T06:29:05;22.00;;;16.37;;
15114;SDS011;7658;51.456;7.622;2024-03-07T06:31:32;22.23;;;17.03;;
15114;SDS011;7658;51.456;7.622;2024-03-07T06:33:58;23.93;;;17.07;;
15114;SDS011;7658;51.456;7.622;2024-03-07T06:36:24;23.87;;;17.73;;
15114;SDS011;7658;51.456;7.622;2024-03-07T06:38:50;22.77;;;17.90;;
15114;SDS011;7658;51.456;7.622;2024-03-07T06:41:16;25.60;;;18.33;;
15114;SDS011;7658;51.456;7.622;2024-03-07T06:43:45;28.40;;;18.73;;
15114;SDS011;7658;51.456;7.622;2024-03-07T06:46:11;23.50;;;16.93;;
15114;SDS011;7658;51.456;7.622;2024-03-07T06:48:37;26.03;;;18.37;;
15114;SDS011;7658;51.456;7.622;2024-03-07T06:51:05;22.60;;;17.03;;
15114;SDS011;7658;51.456;7.622;2024-03-07T06:53:32;23.40;;;17.40;;
15114;SDS011;7658;51.456;7.622;2024-03-07T06:55:58;28.30;;;18.37;;
15114;SDS011;7658;51.456;7.622;2024-03-07T06:58:24;24.40;;;17.47;;
15114;SDS011;7658;51.456;7.622;2024-03-07T07:00:51;24.33;;;18.23;;
15114;SDS011;7658;51.456;7.622;2024-03-07T07:03:19;28.40;;;19.27;;
15114;SDS011;7658;51.456;7.622;2024-03-07T07:05:46;32.13;;;20.07;;
15114;SDS011;7658;51.456;7.622;2024-03-07T07:08:11;29.03;;;18.53;;
15114;SDS011;7658;51.456;7.622;2024-03-07T07:10:41;20.57;;;16.50;;
15114;SDS011;7658;51.456;7.622;2024-03-07T07:13:07;23.13;;;16.43;;
15114;SDS011;7658;51.456;7.622;2024-03-07T07:15:35;20.20;;;16.63;;
15114;SDS011;7658;51.456;7.622;2024-03-07T07:18:02;22.33;;;17.03;;
15114;SDS011;7658;51.456;7.622;2024-03-07T07:20:28;23.37;;;17.37;;
15114;SDS011;7658;51.456;7.622;2024-03-07T07:22:54;21.83;;;16.87;;
15114;SDS011;7658;51.456;7.622;2024-03-07T07:25:22;22.60;;;17.63;;
15114;SDS011;7658;51.456;7.622;2024-03-07T07:27:49;21.27;;;16.37;;
15114;SDS011;7658;51.456;7.622;2024-03-07T07:30:19;22.17;;;17.73;;
15114;SDS011;7658;51.456;7.622;2024-03-07T07:32:51;21.63;;;17.20;;
15114;SDS011;7658;51.456;7.622;2024-03-07T07:35:18;23.97;;;17.57;;
15114;SDS011;7658;51.456;7.622;2024-03-07T07:37:46;25.63;;;18.77;;
15114;SDS011;7658;51.456;7.622;2024-03-07T07:40:17;22.50;;;18.30;;
15114;SDS011;7658;51.456;7.622;2024-03-07T07:42:44;23.13;;;18.43;;
15114;SDS011;7658;51.456;7.622;2024-03-07T07:45:11;23.20;;;18.37;;
15114;SDS011;7658;51.456;7.622;2024-03-07T07:47:48;29.10;;;19.87;;
15114;SDS011;7658;51.456;7.622;2024-03-07T07:50:19;29.37;;;20.17;;
15114;SDS011;7658;51.456;7.622;2024-03-07T07:52:47;25.27;;;20.03;;
15114;SDS011;7658;51.456;7.622;2024-03-07T07:55:18;33.13;;;22.83;;
15114;SDS011;7658;51.456;7.622;2024-03-07T07:57:54;33.67;;;22.40;;
15114;SDS011;7658;51.456;7.622;2024-03-07T08:00:27;34.13;;;23.07;;
15114;SDS011;7658;51.456;7.622;2024-03-07T08:02:54;43.17;;;27.33;;
15114;SDS011;7658;51.456;7.622;2024-03-07T08:05:21;48.17;;;28.43;;
15114;SDS011;7658;51.456;7.622;2024-03-07T08:07:49;44.60;;;27.37;;
15114;SDS011;7658;51.456;7.622;2024-03-07T08:10:16;41.23;;;27.37;;
15114;SDS011;7658;51.456;7.622;2024-03-07T08:12:45;47.00;;;29.07;;
15114;SDS011;7658;51.456;7.622;2024-03-07T08:15:12;42.20;;;27.77;;
15114;SDS011;7658;51.456;7.622;2024-03-07T08:17:42;41.67;;;26.57;;
15114;SDS011;7658;51.456;7.622;2024-03-07T08:20:15;40.40;;;27.33;;
15114;SDS011;7658;51.456;7.622;2024-03-07T08:22:43;45.30;;;28.03;;
15114;SDS011;7658;51.456;7.622;2024-03-07T08:25:10;42.67;;;27.43;;
15114;SDS011;7658;51.456;7.622;2024-03-07T08:27:41;49.30;;;27.97;;
15114;SDS011;7658;51.456;7.622;2024-03-07T08:30:10;46.37;;;29.60;;
15114;SDS011;7658;51.456;7.622;2024-03-07T08:32:43;44.67;;;27.90;;
15114;SDS011;7658;51.456;7.622;2024-03-07T08:35:10;47.40;;;28.73;;
15114;SDS011;7658;51.456;7.622;2024-03-07T08:37:40;45.37;;;28.90;;
15114;SDS011;7658;51.456;7.622;2024-03-07T08:40:19;43.23;;;28.53;;
15114;SDS011;7658;51.456;7.622;2024-03-07T08:42:55;42.27;;;27.47;;
15114;SDS011;7658;51.456;7.622;2024-03-07T08:45:22;44.53;;;29.07;;
15114;SDS011;7658;51.456;7.622;2024-03-07T08:47:52;49.10;;;28.23;;
15114;SDS011;7658;51.456;7.622;2024-03-07T08:50:20;46.70;;;27.97;;
15114;SDS011;7658;51.456;7.622;2024-03-07T08:52:46;40.20;;;28.10;;
15114;SDS011;7658;51.456;7.622;2024-03-07T08:55:14;46.67;;;27.20;;
15114;SDS011;7658;51.456;7.622;2024-03-07T08:57:41;43.80;;;28.87;;
15114;SDS011;7658;51.456;7.622;2024-03-07T09:00:09;43.97;;;27.90;;
15114;SDS011;7658;51.456;7.622;2024-03-07T09:02:47;41.97;;;27.73;;
15114;SDS011;7658;51.456;7.622;2024-03-07T09:05:17;46.57;;;29.77;;
15114;SDS011;7658;51.456;7.622;2024-03-07T09:07:44;38.77;;;28.07;;
15114;SDS011;7658;51.456;7.622;2024-03-07T09:10:12;50.97;;;29.50;;
15114;SDS011;7658;51.456;7.622;2024-03-07T09:12:39;43.73;;;28.93;;
15114;SDS011;7658;51.456;7.622;2024-03-07T09:15:06;46.17;;;29.07;;
15114;SDS011;7658;51.456;7.622;2024-03-07T09:17:32;38.77;;;25.87;;
15114;SDS011;7658;51.456;7.622;2024-03-07T09:19:58;43.93;;;28.20;;
15114;SDS011;7658;51.456;7.622;2024-03-07T09:22:24;42.83;;;28.83;;
15114;SDS011;7658;51.456;7.622;2024-03-07T09:24:50;39.20;;;26.90;;
15114;SDS011;7658;51.456;7.622;2024-03-07T09:27:16;42.20;;;27.17;;
15114;SDS011;7658;51.456;7.622;2024-03-07T09:29:45;44.77;;;27.10;;
15114;SDS011;7658;51.456;7.622;2024-03-07T09:32:12;39.83;;;26.30;;
15114;SDS011;7658;51.456;7.622;2024-03-07T09:34:38;38.63;;;26.70;;
15114;SDS011;7658;51.456;7.622;2024-03-07T09:37:04;39.70;;;26.60;;
15114;SDS011;7658;51.456;7.622;2024-03-07T09:39:33;37.80;;;25.70;;
15114;SDS011;7658;51.456;7.622;2024-03-07T09:42:06;41.20;;;26.27;;
15114;SDS011;7658;51.456;7.622;2024-03-07T09:44:39;40.70;;;24.50;;
15114;SDS011;7658;51.456;7.622;2024-03-07T09:47:07;38.00;;;25.90;;
15114;SDS011;7658;51.456;7.622;2024-03-07T09:49:33;37.60;;;25.30;;
15114;SDS011;7658;51.456;7.622;2024-03-07T09:52:04;38.43;;;25.60;;
15114;SDS011;7658;51.456;7.622;2024-03-07T09:54:35;32.77;;;23.20;;
15114;SDS011;7658;51.456;7.622;2024-03-07T09:57:00;40.27;;;26.23;;
15114;SDS011;7658;51.456;7.622;2024-03-07T09:59:28;34.13;;;24.63;;
15114;SDS011;7658;51.456;7.622;2024-03-07T10:01:56;35.93;;;23.70;;
15114;SDS011;7658;51.456;7.622;2024-03-07T10:04:27;34.77;;;23.57;;
15114;SDS011;7658;51.456;7.622;2024-03-07T10:06:56;35.77;;;23.83;;
15114;SDS011;7658;51.456;7.622;2024-03-07T10:09:23;34.90;;;23.30;;
15114;SDS011;7658;51.456;7.622;2024-03-07T10:11:56;35.70;;;22.83;;
15114;SDS011;7658;51.456;7.622;2024-03-07T10:14:27;30.67;;;21.63;;
15114;SDS011;7658;51.456;7.622;2024-03-07T10:16:57;31.87;;;22.20;;
15114;SDS011;7658;51.456;7.622;2024-03-07T10:19:22;32.03;;;22.93;;
15114;SDS011;7658;51.456;7.622;2024-03-07T10:21:48;30.87;;;21.50;;
15114;SDS011;7658;51.456;7.622;2024-03-07T10:24:16;32.43;;;22.50;;
15114;SDS011;7658;51.456;7.622;2024-03-07T10:26:43;32.00;;;22.03;;
15114;SDS011;7658;51.456;7.622;2024-03-07T10:29:08;31.00;;;23.10;;
15114;SDS011;7658;51.456;7.622;2024-03-07T10:31:34;31.27;;;22.10;;
15114;SDS011;7658;51.456;7.622;2024-03-07T10:34:03;31.27;;;21.43;;
15114;SDS011;7658;51.456;7.622;2024-03-07T10:36:30;29.77;;;23.00;;
15114;SDS011;7658;51.456;7.622;2024-03-07T10:39:00;32.03;;;22.03;;
15114;SDS011;7658;51.456;7.622;2024-03-07T10:41:47;32.20;;;21.67;;
15114;SDS011;7658;51.456;7.622;2024-03-07T10:44:20;32.03;;;22.03;;
15114;SDS011;7658;51.456;7.622;2024-03-07T10:46:53;29.43;;;20.03;;
15114;SDS011;7658;51.456;7.622;2024-03-07T10:49:20;28.73;;;20.57;;
15114;SDS011;7658;51.456;7.622;2024-03-07T10:52:02;29.93;;;20.73;;
15114;SDS011;7658;51.456;7.622;2024-03-07T10:57:36;28.57;;;20.93;;
15114;SDS011;7658;51.456;7.622;2024-03-07T11:00:14;28.57;;;21.00;;
15114;SDS011;7658;51.456;7.622;2024-03-07T11:02:57;27.80;;;21.33;;
15114;SDS011;7658;51.456;7.622;2024-03-07T11:05:26;32.80;;;21.67;;
15114;SDS011;7658;51.456;7.622;2024-03-07T11:07:59;28.13;;;20.43;;
15114;SDS011;7658;51.456;7.622;2024-03-07T11:10:36;27.63;;;19.90;;
15114;SDS011;7658;51.456;7.622;2024-03-07T11:13:06;26.30;;;20.13;;
15114;SDS011;7658;51.456;7.622;2024-03-07T11:15:35;27.90;;;20.17;;
15114;SDS011;7658;51.456;7.622;2024-03-07T11:18:02;28.40;;;21.17;;
15114;SDS011;7658;51.456;7.622;2024-03-07T11:20:38;34.70;;;21.80;;
15114;SDS011;7658;51.456;7.622;2024-03-07T11:25:49;33.30;;;22.73;;
15114;SDS011;7658;51.456;7.622;2024-03-07T11:28:18;30.43;;;20.90;;
15114;SDS011;7658;51.456;7.622;2024-03-07T11:30:45;29.27;;;19.97;;
15114;SDS011;7658;51.456;7.622;2024-03-07T11:33:11;25.07;;;19.77;;
15114;SDS011;7658;51.456;7.622;2024-03-07T11:35:39;29.73;;;20.60;;
15114;SDS011;7658;51.456;7.622;2024-03-07T11:38:08;27.63;;;20.37;;
15114;SDS011;7658;51.456;7.622;2024-03-07T11:43:05;30.80;;;20.40;;
15114;SDS011;7658;51.456;7.622;2024-03-07T11:45:31;26.97;;;20.60;;
15114;SDS011;7658;51.456;7.622;2024-03-07T11:48:09;30.63;;;20.90;;
15114;SDS011;7658;51.456;7.622;2024-03-07T11:50:36;27.77;;;20.40;;
15114;SDS011;7658;51.456;7.622;2024-03-07T11:53:03;27.20;;;19.90;;
15114;SDS011;7658;51.456;7.622;2024-03-07T11:55:36;30.57;;;20.70;;
15114;SDS011;7658;51.456;7.622;2024-03-07T11:58:13;25.23;;;19.23;;
15114;SDS011;7658;51.456;7.622;2024-03-07T12:00:45;25.70;;;18.37;;
15114;SDS011;7658;51.456;7.622;2024-03-07T12:03:14;22.13;;;17.58;;
15114;SDS011;7658;51.456;7.622;2024-03-07T12:05:46;25.93;;;17.93;;
15114;SDS011;7658;51.456;7.622;2024-03-07T12:08:13;26.67;;;18.70;;
15114;SDS011;7658;51.456;7.622;2024-03-07T12:10:39;24.97;;;18.83;;
15114;SDS011;7658;51.456;7.622;2024-03-07T12:13:12;25.57;;;18.43;;
15114;SDS011;7658;51.456;7.622;2024-03-07T12:15:45;22.73;;;16.60;;
15114;SDS011;7658;51.456;7.622;2024-03-07T12:18:11;26.58;;;17.05;;
15114;SDS011;7658;51.456;7.622;2024-03-07T12:20:43;22.50;;;17.63;;
15114;SDS011;7658;51.456;7.622;2024-03-07T12:23:19;23.95;;;17.33;;
15114;SDS011;7658;51.456;7.622;2024-03-07T12:25:47;21.33;;;16.67;;
15114;SDS011;7658;51.456;7.622;2024-03-07T12:28:13;21.73;;;17.33;;
15114;SDS011;7658;51.456;7.622;2024-03-07T12:33:15;22.17;;;16.50;;
15114;SDS011;7658;51.456;7.622;2024-03-07T12:35:47;19.90;;;15.30;;
15114;SDS011;7658;51.456;7.622;2024-03-07T12:38:17;19.33;;;15.00;;
15114;SDS011;7658;51.456;7.622;2024-03-07T12:40:44;18.42;;;15.10;;
15114;SDS011;7658;51.456;7.622;2024-03-07T12:43:14;19.63;;;15.05;;
15114;SDS011;7658;51.456;7.622;2024-03-07T12:45:45;24.10;;;15.50;;
15114;SDS011;7658;51.456;7.622;2024-03-07T12:48:17;22.70;;;16.02;;
15114;SDS011;7658;51.456;7.622;2024-03-07T12:50:46;18.27;;;14.70;;
15114;SDS011;7658;51.456;7.622;2024-03-07T12:53:21;19.77;;;14.45;;
15114;SDS011;7658;51.456;7.622;2024-03-07T12:55:48;18.92;;;14.15;;
15114;SDS011;7658;51.456;7.622;2024-03-07T12:58:14;20.10;;;15.37;;
15114;SDS011;7658;51.456;7.622;2024-03-07T13:00:40;19.70;;;15.13;;
15114;SDS011;7658;51.456;7.622;2024-03-07T13:03:10;21.05;;;14.95;;
15114;SDS011;7658;51.456;7.622;2024-03-07T13:05:36;18.33;;;13.33;;
15114;SDS011;7658;51.456;7.622;2024-03-07T13:08:06;19.30;;;14.00;;
15114;SDS011;7658;51.456;7.622;2024-03-07T13:10:39;20.43;;;14.10;;
15114;SDS011;7658;51.456;7.622;2024-03-07T13:13:06;20.73;;;13.43;;
15114;SDS011;7658;51.456;7.622;2024-03-07T13:15:34;18.90;;;12.63;;
15114;SDS011;7658;51.456;7.622;2024-03-07T13:18:02;19.80;;;13.83;;
15114;SDS011;7658;51.456;7.622;2024-03-07T13:20:30;18.27;;;13.47;;
15114;SDS011;7658;51.456;7.622;2024-03-07T13:22:56;19.70;;;14.17;;
15114;SDS011;7658;51.456;7.622;2024-03-07T13:25:25;20.53;;;13.53;;
15114;SDS011;7658;51.456;7.622;2024-03-07T13:30:24;20.47;;;14.43;;
15114;SDS011;7658;51.456;7.622;2024-03-07T13:32:56;20.73;;;13.93;;
15114;SDS011;7658;51.456;7.622;2024-03-07T13:35:23;19.37;;;13.13;;
15114;SDS011;7658;51.456;7.622;2024-03-07T13:37:50;17.80;;;13.20;;
15114;SDS011;7658;51.456;7.622;2024-03-07T13:40:20;19.63;;;13.17;;
15114;SDS011;7658;51.456;7.622;2024-03-07T13:42:59;15.57;;;11.73;;
15114;SDS011;7658;51.456;7.622;2024-03-07T13:45:32;17.67;;;11.82;;
15114;SDS011;7658;51.456;7.622;2024-03-07T13:48:04;16.70;;;11.85;;
15114;SDS011;7658;51.456;7.622;2024-03-07T13:50:31;18.30;;;12.50;;
15114;SDS011;7658;51.456;7.622;2024-03-07T13:52:59;16.00;;;12.30;;
15114;SDS011;7658;51.456;7.622;2024-03-07T14:10:01;18.53;;;13.50;;
15114;SDS011;7658;51.456;7.622;2024-03-07T14:22:05;21.17;;;14.20;;
15114;SDS011;7658;51.456;7.622;2024-03-07T14:30:50;24.57;;;15.60;;
15114;SDS011;7658;51.456;7.622;2024-03-07T14:33:25;20.27;;;14.13;;
15114;SDS011;7658;51.456;7.622;2024-03-07T14:36:13;21.00;;;14.80;;
15114;SDS011;7658;51.456;7.622;2024-03-07T14:38:46;21.80;;;14.80;;
15114;SDS011;7658;51.456;7.622;2024-03-07T14:41:23;23.10;;;15.50;;
15114;SDS011;7658;51.456;7.622;2024-03-07T14:44:05;21.57;;;16.37;;
15114;SDS011;7658;51.456;7.622;2024-03-07T14:46:32;24.33;;;16.40;;
15114;SDS011;7658;51.456;7.622;2024-03-07T14:49:00;23.67;;;17.23;;
15114;SDS011;7658;51.456;7.622;2024-03-07T14:51:25;27.25;;;17.48;;
15114;SDS011;7658;51.456;7.622;2024-03-07T14:53:52;24.23;;;16.40;;
15114;SDS011;7658;51.456;7.622;2024-03-07T14:56:18;25.37;;;16.00;;
15114;SDS011;7658;51.456;7.622;2024-03-07T14:58:45;26.03;;;16.83;;
15114;SDS011;7658;51.456;7.622;2024-03-07T15:01:12;26.50;;;16.30;;
15114;SDS011;7658;51.456;7.622;2024-03-07T15:03:38;26.10;;;16.80;;
15114;SDS011;7658;51.456;7.622;2024-03-07T15:06:08;27.73;;;16.40;;
15114;SDS011;7658;51.456;7.622;2024-03-07T15:08:34;26.23;;;16.10;;
15114;SDS011;7658;51.456;7.622;2024-03-07T15:11:06;24.20;;;15.87;;
15114;SDS011;7658;51.456;7.622;2024-03-07T15:13:38;24.13;;;16.87;;
15114;SDS011;7658;51.456;7.622;2024-03-07T15:16:04;22.73;;;15.83;;
15114;SDS011;7658;51.456;7.622;2024-03-07T15:18:31;26.53;;;17.13;;
15114;SDS011;7658;51.456;7.622;2024-03-07T15:20:57;27.27;;;16.83;;
15114;SDS011;7658;51.456;7.622;2024-03-07T15:23:23;26.87;;;16.67;;